Time;durP1;ratioP1;P1;durP2;ratioP2;P2;SDS_P1;SDS_P2;PMS_P1;PMS_P2;Temp;Humidity;BMP_temperature;BMP_pressure;BME280_temperature;BME280_humidity;BME280_pressure;Samples;Min_cycle;Max_cycle;Signal;HPM_P1;HPM_P2
2020/12/12 00:00:52;;;;;;;23.20;6.60;;;;;;;-1.64;67.99;101375.30;1823868;77;20892;-91
2020/12/12 00:03:18;;;;;;;24.47;6.05;;;;;;;-1.77;67.72;101363.84;1847381;77;21201;-91
2020/12/12 00:05:44;;;;;;;16.70;5.47;;;;;;;-1.68;68.17;101369.98;1847238;77;21074;-91
2020/12/12 00:08:09;;;;;;;16.62;5.87;;;;;;;-1.62;67.67;101361.41;1847383;77;20947;-91
2020/12/12 00:10:35;;;;;;;22.65;6.42;;;;;;;-1.92;68.56;101352.23;1847534;77;20983;-91
2020/12/12 00:13:01;;;;;;;19.42;5.85;;;;;;;-1.43;67.87;101345.78;1847432;77;21663;-92
2020/12/12 00:15:27;;;;;;;18.57;6.20;;;;;;;-1.48;67.50;101352.04;1823986;77;21780;-91
2020/12/12 00:17:53;;;;;;;16.60;5.20;;;;;;;-1.86;68.26;101355.06;1847304;77;20924;-91
2020/12/12 00:20:19;;;;;;;27.25;6.42;;;;;;;-1.95;68.87;101362.62;1847184;77;20916;-92
2020/12/12 00:22:45;;;;;;;19.10;6.37;;;;;;;-1.51;67.54;101365.08;1847503;77;21551;-93
2020/12/12 00:25:11;;;;;;;21.65;6.25;;;;;;;-1.37;67.21;101355.20;1847483;77;20947;-92
2020/12/12 00:27:37;;;;;;;31.73;5.45;;;;;;;-1.65;67.69;101349.38;1847449;77;21251;-91
2020/12/12 00:30:05;;;;;;;25.05;6.53;;;;;;;-1.55;67.13;101351.87;1847463;77;21090;-91
2020/12/12 00:32:31;;;;;;;17.17;4.90;;;;;;;-1.15;66.47;101347.15;1847466;77;21185;-91
2020/12/12 00:34:57;;;;;;;14.75;5.80;;;;;;;-1.56;67.65;101348.05;1847266;77;21030;-91
2020/12/12 00:37:23;;;;;;;25.52;6.53;;;;;;;-1.77;68.27;101349.31;1846074;77;21092;-91
2020/12/12 00:39:49;;;;;;;19.10;6.78;;;;;;;-0.88;65.75;101340.34;1841923;77;21213;-91
2020/12/12 00:42:15;;;;;;;24.15;6.17;;;;;;;-1.31;66.84;101333.08;1841934;77;21019;-91
2020/12/12 00:44:41;;;;;;;24.07;6.87;;;;;;;-0.84;65.53;101338.54;1841726;77;20918;-91
2020/12/12 00:47:06;;;;;;;19.00;5.85;;;;;;;-1.32;66.90;101332.72;1841882;77;20940;-91
2020/12/12 00:49:32;;;;;;;17.65;5.55;;;;;;;-0.86;65.82;101341.84;1841650;77;21012;-91
2020/12/12 00:51:58;;;;;;;18.02;5.45;;;;;;;-1.12;66.47;101338.03;1841642;77;21206;-91
2020/12/12 00:54:24;;;;;;;21.40;6.62;;;;;;;-0.89;65.58;101345.32;1818088;77;20912;-91
2020/12/12 00:56:50;;;;;;;19.55;5.22;;;;;;;-1.12;66.00;101332.74;1841776;77;21133;-90
2020/12/12 00:59:18;;;;;;;19.30;6.15;;;;;;;-1.14;66.55;101338.72;1841834;77;20920;-91
2020/12/12 01:01:43;;;;;;;18.85;5.50;;;;;;;-1.01;66.25;101342.18;1841805;77;21520;-91
2020/12/12 01:04:09;;;;;;;17.60;5.20;;;;;;;-1.15;66.26;101334.39;1841596;77;21157;-91
2020/12/12 01:06:35;;;;;;;20.48;5.30;;;;;;;-1.30;66.96;101325.47;1841820;77;21126;-92
2020/12/12 01:09:01;;;;;;;19.65;5.55;;;;;;;-1.36;67.79;101328.27;1841872;77;20900;-91
2020/12/12 01:11:26;;;;;;;22.10;6.53;;;;;;;-1.23;67.11;101323.84;1818491;77;20979;-91
2020/12/12 01:13:52;;;;;;;16.73;5.30;;;;;;;-1.39;67.82;101321.98;1841805;77;21660;-91
2020/12/12 01:16:18;;;;;;;18.00;5.00;;;;;;;-1.55;68.05;101320.16;1841774;77;21068;-90
2020/12/12 01:18:44;;;;;;;25.08;6.28;;;;;;;-1.40;67.34;101311.09;1841708;77;20885;-90
2020/12/12 01:21:16;;;;;;;17.73;5.72;;;;;;;-1.29;66.45;101318.71;1841928;77;21003;-91
2020/12/12 01:23:42;;;;;;;20.97;5.35;;;;;;;-0.87;65.80;101330.11;1839074;77;21102;-91
2020/12/12 01:26:08;;;;;;;16.82;5.33;;;;;;;-1.18;65.62;101328.11;1841873;77;21582;-92
2020/12/12 01:28:35;;;;;;;16.07;4.80;;;;;;;-1.30;66.43;101322.82;1842020;77;21378;-91
2020/12/12 01:31:02;;;;;;;15.65;4.78;;;;;;;-1.54;67.03;101317.02;1841725;77;21110;-91
2020/12/12 01:33:27;;;;;;;19.92;5.65;;;;;;;-1.35;66.44;101331.73;1841881;77;21559;-92
2020/12/12 01:35:53;;;;;;;20.00;5.15;;;;;;;-1.24;66.32;101323.48;1837950;77;20999;-91
2020/12/12 01:38:20;;;;;;;15.78;4.17;;;;;;;-1.54;66.88;101320.48;1844824;77;21012;-90
2020/12/12 01:40:46;;;;;;;22.98;6.25;;;;;;;-1.52;66.88;101317.69;1847565;77;21145;-91
2020/12/12 01:43:12;;;;;;;18.80;5.17;;;;;;;-1.61;66.94;101315.52;1847421;77;20908;-91
2020/12/12 01:45:39;;;;;;;17.35;4.60;;;;;;;-2.02;68.39;101299.55;1847383;77;21050;-91
2020/12/12 01:48:07;;;;;;;16.30;4.92;;;;;;;-2.03;68.78;101303.16;1847527;77;21110;-91
2020/12/12 01:50:34;;;;;;;19.73;6.65;;;;;;;-1.90;68.28;101304.87;1824113;77;21150;-91
2020/12/12 01:53:01;;;;;;;18.80;5.03;;;;;;;-1.60;67.18;101291.56;1847500;77;21142;-91
2020/12/12 01:55:28;;;;;;;18.92;5.30;;;;;;;-1.79;67.46;101295.83;1847553;77;21571;-92
2020/12/12 01:57:54;;;;;;;21.87;6.42;;;;;;;-1.85;66.85;101297.30;1847474;77;21598;-91
2020/12/12 02:00:23;;;;;;;17.60;5.22;;;;;;;-1.69;67.15;101294.36;1847467;77;21275;-91
2020/12/12 02:06:29;;;;;;;17.35;5.65;;;;;;;-2.04;67.58;101304.66;1847462;77;21185;-91
2020/12/12 02:08:55;;;;;;;18.55;5.58;;;;;;;-1.48;66.49;101295.22;1847426;77;20935;-90
2020/12/12 02:11:21;;;;;;;19.30;5.35;;;;;;;-1.65;66.79;101301.81;1847777;77;21114;-90
2020/12/12 02:13:48;;;;;;;17.42;4.97;;;;;;;-1.82;67.50;101286.91;1847596;77;20932;-91
2020/12/12 02:16:17;;;;;;;22.55;5.75;;;;;;;-1.79;66.90;101281.30;1847604;77;21150;-91
2020/12/12 02:18:44;;;;;;;23.98;5.50;;;;;;;-1.88;67.37;101291.02;1819297;78;21159;-91
2020/12/12 02:21:10;;;;;;;18.23;6.17;;;;;;;-2.29;68.59;101296.15;1819274;78;21171;-90
2020/12/12 02:23:37;;;;;;;16.65;5.65;;;;;;;-2.15;67.98;101289.92;1819512;78;21207;-90
2020/12/12 02:26:04;;;;;;;15.78;5.15;;;;;;;-2.31;68.78;101284.91;1819316;78;21595;-90
2020/12/12 02:28:44;;;;;;;15.05;5.20;;;;;;;-2.14;68.20;101287.63;1819422;78;21425;-91
2020/12/12 02:31:04;;;;;;;18.55;5.40;;;;;;;-2.22;68.38;101292.88;1819410;78;21132;-91
2020/12/12 02:33:30;;;;;;;16.77;5.53;;;;;;;-2.02;67.95;101289.48;1819303;78;21108;-91
2020/12/12 02:35:57;;;;;;;19.23;5.55;;;;;;;-1.62;66.74;101292.70;1819392;78;20962;-90
2020/12/12 02:38:23;;;;;;;20.43;4.97;;;;;;;-1.91;67.47;101296.62;1814728;78;21168;-91
2020/12/12 02:40:50;;;;;;;20.37;5.20;;;;;;;-2.25;68.65;101284.77;1808276;79;21145;-91
2020/12/12 02:43:16;;;;;;;19.00;5.92;;;;;;;-2.11;68.57;101282.85;1808229;79;21129;-91
2020/12/12 02:45:46;;;;;;;18.75;5.60;;;;;;;-2.26;69.17;101281.81;1808118;79;20981;-91
2020/12/12 02:48:12;;;;;;;17.90;5.12;;;;;;;-2.33;69.71;101285.55;1808136;79;21193;-91
2020/12/12 02:50:38;;;;;;;20.85;5.85;;;;;;;-1.99;68.37;101287.84;1808243;79;21539;-91
2020/12/12 02:53:04;;;;;;;25.45;6.53;;;;;;;-2.02;68.44;101277.61;1808178;79;21111;-91
2020/12/12 02:55:30;;;;;;;18.27;4.65;;;;;;;-2.09;68.95;101278.72;1781440;79;21115;-90
2020/12/12 02:57:56;;;;;;;19.32;5.25;;;;;;;-2.12;68.37;101269.80;1808168;79;21703;-91
2020/12/12 03:00:25;;;;;;;17.27;6.10;;;;;;;-1.99;67.78;101270.19;1808209;79;20935;-91
2020/12/12 03:02:52;;;;;;;19.23;5.72;;;;;;;-2.37;69.35;101264.44;1808030;79;21156;-91
2020/12/12 03:05:19;;;;;;;17.80;5.65;;;;;;;-2.19;68.69;101252.95;1808086;79;21168;-90
2020/12/12 03:07:45;;;;;;;22.42;5.90;;;;;;;-2.03;68.55;101266.19;1808184;79;22267;-90
2020/12/12 03:10:10;;;;;;;21.45;5.78;;;;;;;-1.92;67.65;101273.00;1808157;79;20978;-91
2020/12/12 03:12:38;;;;;;;21.77;5.60;;;;;;;-1.94;68.01;101256.02;1808323;79;20942;-91
2020/12/12 03:15:10;;;;;;;16.52;5.22;;;;;;;-2.18;68.66;101253.28;1816782;77;21186;-91
2020/12/12 03:17:37;;;;;;;19.92;5.58;;;;;;;-2.27;69.22;101270.08;1836172;78;21142;-91
2020/12/12 03:20:06;;;;;;;15.18;5.67;;;;;;;-2.20;69.32;101261.38;1836312;78;21186;-90
2020/12/12 03:22:34;;;;;;;16.82;5.08;;;;;;;-2.02;68.73;101261.77;1836193;77;21563;-91
2020/12/12 03:25:00;;;;;;;17.60;5.92;;;;;;;-1.88;67.25;101258.50;1836189;78;21540;-91
2020/12/12 03:27:26;;;;;;;16.12;4.28;;;;;;;-2.16;68.63;101261.38;1836219;78;21158;-90
2020/12/12 03:29:52;;;;;;;24.15;6.12;;;;;;;-2.48;69.83;101267.34;1836147;78;20917;-91
2020/12/12 03:32:18;;;;;;;17.82;5.70;;;;;;;-1.83;67.96;101254.36;1836265;77;21191;-91
2020/12/12 03:34:44;;;;;;;16.87;5.95;;;;;;;-2.08;68.30;101258.77;1836204;78;21597;-90
2020/12/12 03:37:12;;;;;;;17.23;5.35;;;;;;;-1.75;67.20;101254.06;1836193;78;21166;-91
2020/12/12 03:39:39;;;;;;;19.80;5.33;;;;;;;-1.72;67.14;101254.55;1845203;77;21518;-90
2020/12/12 03:42:06;;;;;;;16.55;5.35;;;;;;;-2.12;68.44;101251.31;1847513;77;21519;-91
2020/12/12 03:44:32;;;;;;;18.20;5.62;;;;;;;-2.00;68.15;101263.73;1847369;77;21217;-91
2020/12/12 03:46:57;;;;;;;14.15;5.03;;;;;;;-2.00;68.08;101260.62;1847434;77;21147;-91
2020/12/12 03:49:23;;;;;;;17.57;4.90;;;;;;;-2.28;69.19;101258.70;1847544;77;21550;-91
2020/12/12 03:51:49;;;;;;;15.35;5.08;;;;;;;-2.06;67.81;101272.64;1847575;77;21011;-91
2020/12/12 03:54:15;;;;;;;15.10;5.92;;;;;;;-1.91;67.29;101254.83;1823914;77;20947;-90
2020/12/12 03:56:41;;;;;;;15.30;5.28;;;;;;;-2.28;68.99;101248.14;1847590;77;21213;-91
2020/12/12 03:59:06;;;;;;;18.20;5.37;;;;;;;-1.96;67.86;101251.88;1847265;77;20865;-91
2020/12/12 04:01:32;;;;;;;16.05;5.00;;;;;;;-2.24;68.47;101250.78;1847438;77;21086;-90
2020/12/12 04:03:58;;;;;;;24.02;5.85;;;;;;;-1.94;68.13;101251.20;1847469;77;20885;-90
2020/12/12 04:06:24;;;;;;;15.30;5.22;;;;;;;-2.03;67.39;101251.67;1847584;77;20908;-91
2020/12/12 04:08:50;;;;;;;16.23;5.47;;;;;;;-1.87;67.31;101242.48;1847349;77;21233;-91
2020/12/12 04:11:16;;;;;;;17.75;5.45;;;;;;;-2.21;68.60;101237.27;1847418;77;21058;-91
2020/12/12 04:13:42;;;;;;;22.13;6.10;;;;;;;-2.15;68.79;101249.00;1847447;77;20950;-90
2020/12/12 04:16:08;;;;;;;20.40;5.95;;;;;;;-2.46;70.00;101236.86;1843510;77;20999;-90
2020/12/12 04:18:35;;;;;;;19.37;5.12;;;;;;;-1.80;67.97;101241.83;1847050;77;47767;-91
2020/12/12 04:21:01;;;;;;;22.55;5.90;;;;;;;-2.29;69.33;101239.40;1847448;77;21396;-89
2020/12/12 04:23:27;;;;;;;20.43;5.97;;;;;;;-2.03;68.73;101231.86;1847322;77;21142;-90
2020/12/12 04:25:53;;;;;;;21.75;5.67;;;;;;;-2.21;68.92;101231.16;1847420;77;20944;-90
2020/12/12 04:28:19;;;;;;;18.10;6.08;;;;;;;-2.03;68.03;101230.55;1823779;77;20916;-90
2020/12/12 04:30:45;;;;;;;19.35;5.10;;;;;;;-2.45;69.88;101236.69;1843396;77;21594;-90
2020/12/12 04:33:11;;;;;;;18.50;6.37;;;;;;;-2.36;69.58;101243.64;1847499;77;21115;-90
2020/12/12 04:35:37;;;;;;;17.48;5.15;;;;;;;-1.99;68.34;101239.81;1847309;77;20911;-91
2020/12/12 04:38:03;;;;;;;18.52;4.83;;;;;;;-1.95;68.01;101240.31;1847235;77;21058;-90
2020/12/12 04:40:30;;;;;;;15.10;5.65;;;;;;;-2.30;69.31;101227.16;1841815;77;20917;-91
2020/12/12 04:42:56;;;;;;;19.98;5.95;;;;;;;-1.94;67.86;101222.14;1841523;77;21158;-91
2020/12/12 04:45:25;;;;;;;16.97;5.25;;;;;;;-1.91;68.08;101235.88;1841543;77;21297;-90
2020/12/12 04:47:51;;;;;;;19.02;5.97;;;;;;;-2.08;68.49;101235.00;1818513;77;21087;-90
2020/12/12 04:50:28;;;;;;;20.75;6.10;;;;;;;-2.14;68.58;101230.88;1841764;77;21118;-90
2020/12/12 04:52:48;;;;;;;20.77;5.62;;;;;;;-2.67;69.98;101228.84;1834159;77;21150;-91
2020/12/12 04:55:13;;;;;;;20.00;6.10;;;;;;;-2.56;70.02;101218.48;1841704;77;20960;-90
2020/12/12 04:57:40;;;;;;;18.82;6.22;;;;;;;-2.29;69.74;101228.84;1841745;77;22052;-90
2020/12/12 05:00:13;;;;;;;25.08;6.10;;;;;;;-2.35;69.27;101222.06;1841759;77;21106;-91
2020/12/12 05:02:39;;;;;;;;;;;;;;;-2.22;68.96;101214.50;1844634;77;21122;-91
2020/12/12 05:05:07;;;;;;;18.48;5.20;;;;;;;-2.41;69.14;101218.24;1841883;77;20372;-90
2020/12/12 05:07:33;;;;;;;17.60;6.37;;;;;;;-2.37;69.31;101213.47;1842003;77;21122;-90
2020/12/12 05:10:01;;;;;;;27.65;6.62;;;;;;;-2.34;69.22;101256.20;1841846;77;21260;-91
2020/12/12 05:12:27;;;;;;;17.67;5.03;;;;;;;-2.10;69.09;101223.77;1841905;77;21067;-91
2020/12/12 05:14:53;;;;;;;21.82;6.33;;;;;;;-2.23;69.26;101219.95;1841974;77;21146;-90
2020/12/12 05:17:20;;;;;;;16.82;6.10;;;;;;;-2.64;69.92;101217.98;1841885;77;21209;-90
2020/12/12 05:19:49;;;;;;;17.77;5.62;;;;;;;-2.80;70.58;101217.39;1841987;77;21111;-90
2020/12/12 05:22:15;;;;;;;17.02;5.80;;;;;;;-2.28;69.21;101216.47;1808129;79;21146;-91
2020/12/12 05:24:42;;;;;;;18.57;5.97;;;;;;;-2.56;70.26;101219.34;1807987;79;21176;-90
2020/12/12 05:27:09;;;;;;;18.00;6.55;;;;;;;-2.61;70.64;101228.71;1808436;79;21105;-90
2020/12/12 05:29:36;;;;;;;17.73;6.30;;;;;;;-2.49;69.77;101216.89;1808279;78;21128;-90
2020/12/12 05:32:03;;;;;;;21.85;7.10;;;;;;;-2.56;70.49;101214.53;1808358;78;21518;-90
2020/12/12 05:34:30;;;;;;;25.82;7.47;;;;;;;-2.39;70.49;101216.75;1808247;79;21149;-91
2020/12/12 05:36:56;;;;;;;24.60;5.70;;;;;;;-2.35;70.11;101214.97;1808305;79;21200;-91
2020/12/12 05:39:23;;;;;;;20.05;6.33;;;;;;;-2.35;69.72;101210.19;1806971;79;21192;-91
2020/12/12 05:45:29;;;;;;;18.95;6.10;;;;;;;-2.06;68.58;101205.31;1805704;79;21244;-91
2020/12/12 05:47:55;;;;;;;16.25;5.22;;;;;;;-2.27;69.97;101209.37;1805745;79;21146;-91
2020/12/12 05:50:22;;;;;;;17.98;6.05;;;;;;;-2.32;69.75;101215.97;1808106;79;21120;-91
2020/12/12 05:52:54;;;;;;;28.77;5.78;;;;;;;-2.14;69.54;101204.47;1808342;79;21136;-91
2020/12/12 05:55:28;;;;;;;15.53;5.30;;;;;;;-2.36;69.90;101199.28;1808312;79;21222;-90
2020/12/12 05:57:56;;;;;;;19.57;6.30;;;;;;;-2.34;70.36;101195.99;1808211;79;21168;-91
2020/12/12 06:00:25;;;;;;;15.98;5.92;;;;;;;-2.06;69.41;101201.82;1808266;79;21144;-90
2020/12/12 06:03:04;;;;;;;18.48;5.85;;;;;;;-1.91;69.12;101194.94;1808207;79;21589;-90
2020/12/12 06:05:33;;;;;;;19.77;5.97;;;;;;;-1.81;68.26;101188.67;1726908;82;21084;-91
2020/12/12 06:08:04;;;;;;;17.77;4.35;;;;;;;-2.07;69.19;101181.70;1729968;82;21221;-91
2020/12/12 06:10:34;;;;;;;16.12;5.28;;;;;;;-2.25;69.85;101179.69;1730144;82;21179;-91
2020/12/12 06:13:03;;;;;;;17.60;5.75;;;;;;;-1.87;68.87;101188.33;1726237;82;21867;-91
2020/12/12 06:15:40;;;;;;;18.12;5.90;;;;;;;-1.43;67.56;101192.47;1719870;82;21209;-91
2020/12/12 06:18:27;;;;;;;23.83;6.40;;;;;;;-1.78;68.93;101184.38;1723417;81;21164;-91
2020/12/12 06:20:55;;;;;;;23.87;6.90;;;;;;;-1.60;68.17;101179.25;1757910;80;21688;-91
2020/12/12 06:23:24;;;;;;;22.77;5.67;;;;;;;-2.20;70.39;101179.54;1757802;81;21572;-91
2020/12/12 06:25:50;;;;;;;16.32;5.58;;;;;;;-2.08;70.04;101178.23;1758350;81;21622;-90
2020/12/12 06:28:22;;;;;;;19.30;6.62;;;;;;;-1.91;69.51;101172.95;1758060;80;20909;-91
2020/12/12 06:30:49;;;;;;;19.48;5.33;;;;;;;-1.78;69.63;101180.42;1739729;81;21199;-92
2020/12/12 06:33:16;;;;;;;19.48;6.58;;;;;;;-1.87;69.56;101183.05;1739235;81;21136;-90
2020/12/12 06:35:42;;;;;;;24.55;7.33;;;;;;;-1.57;68.95;101174.14;1729468;81;21208;-91
2020/12/12 06:38:26;;;;;;;25.62;6.70;;;;;;;-1.50;68.50;101176.46;1729450;81;22017;-90
2020/12/12 06:40:59;;;;;;;23.15;7.35;;;;;;;-2.07;70.16;101173.28;1724211;81;21218;-91
2020/12/12 06:43:34;;;;;;;22.52;6.40;;;;;;;-1.90;70.12;101178.09;1724566;81;21123;-91
2020/12/12 06:46:04;;;;;;;16.55;5.47;;;;;;;-1.49;68.61;101176.78;1721278;81;21231;-91
2020/12/12 06:48:31;;;;;;;21.77;7.08;;;;;;;-1.70;69.92;101175.97;1724275;81;21219;-91
2020/12/12 06:51:00;;;;;;;23.77;8.35;;;;;;;-1.74;69.93;101172.48;1724332;81;21204;-90
2020/12/12 06:53:29;;;;;;;31.12;6.67;;;;;;;-1.68;69.87;101173.14;1724230;81;21104;-91
2020/12/12 06:56:15;;;;;;;27.30;6.00;;;;;;;-1.50;69.44;101165.89;1724285;83;21231;-90
2020/12/12 06:58:44;;;;;;;22.30;6.83;;;;;;;-1.46;68.22;101177.77;1724402;81;21191;-90
2020/12/12 07:01:30;;;;;;;21.42;5.67;;;;;;;-1.62;69.84;101168.52;1704764;82;21490;-90
2020/12/12 07:04:03;;;;;;;23.42;6.15;;;;;;;-1.67;70.33;101173.49;1745588;82;21204;-90
2020/12/12 07:06:33;;;;;;;20.90;6.25;;;;;;;-1.52;69.59;101172.33;1685688;85;21592;-91
2020/12/12 07:09:08;;;;;;;20.52;6.67;;;;;;;-1.54;69.97;101173.80;1685462;85;21138;-90
2020/12/12 07:11:35;;;;;;;20.57;6.17;;;;;;;-1.64;70.30;101189.02;1685492;85;21186;-90
2020/12/12 07:14:03;;;;;;;19.62;6.15;;;;;;;-1.67;70.69;101164.25;1685398;85;21214;-91
2020/12/12 07:16:29;;;;;;;21.77;6.37;;;;;;;-1.32;70.35;101171.46;1685555;85;21151;-91
2020/12/12 07:18:56;;;;;;;23.30;7.37;;;;;;;-1.47;70.99;101177.45;1685700;85;21171;-93
2020/12/12 07:21:22;;;;;;;21.42;6.20;;;;;;;-1.31;70.99;101175.78;1685566;85;21258;-90
2020/12/12 07:23:50;;;;;;;24.27;6.65;;;;;;;-1.66;72.59;101184.38;1685550;85;21151;-91
2020/12/12 07:26:16;;;;;;;22.80;6.53;;;;;;;-1.32;71.60;101183.36;1685610;85;21135;-90
2020/12/12 07:28:42;;;;;;;23.32;5.33;;;;;;;-1.55;72.98;101177.95;1765145;80;21136;-90
2020/12/12 07:31:08;;;;;;;21.17;5.72;;;;;;;-1.88;75.23;101170.84;1770908;81;21014;-90
2020/12/12 07:33:34;;;;;;;20.25;5.95;;;;;;;-1.68;75.08;101171.82;1771060;81;21144;-90
2020/12/12 07:36:00;;;;;;;21.75;6.60;;;;;;;-1.56;74.62;101169.67;1771093;81;21187;-90
2020/12/12 07:38:30;;;;;;;25.35;6.80;;;;;;;-1.65;75.30;101174.13;1771010;81;21191;-90
2020/12/12 07:40:56;;;;;;;23.65;7.65;;;;;;;-1.65;76.52;101182.06;1771017;80;21216;-89
2020/12/12 07:43:22;;;;;;;16.37;5.62;;;;;;;-1.51;76.86;101172.66;1771012;81;20978;-89
2020/12/12 07:46:09;;;;;;;28.30;6.72;;;;;;;-1.66;77.18;101162.74;1771296;81;21573;-91
2020/12/12 07:48:34;;;;;;;24.63;6.20;;;;;;;-1.30;76.63;101167.66;1770997;80;21151;-89
2020/12/12 07:51:00;;;;;;;20.60;7.40;;;;;;;-1.44;78.20;101164.38;1771154;81;21061;-89
2020/12/12 07:53:28;;;;;;;20.97;6.78;;;;;;;-1.15;77.30;101159.86;1771145;81;21206;-91
2020/12/12 07:58:28;;;;;;;18.55;5.87;;;;;;;-1.24;78.82;101152.45;1688352;84;21605;-93
2020/12/12 08:01:05;;;;;;;18.65;6.60;;;;;;;-1.00;78.62;101154.23;1686625;83;21298;-92
2020/12/12 08:03:33;;;;;;;23.20;7.22;;;;;;;-1.06;79.26;101152.73;1705397;83;21188;-91
2020/12/12 08:06:07;;;;;;;27.30;7.22;;;;;;;-0.44;77.54;101148.02;1698063;83;21261;-93
2020/12/12 08:08:35;;;;;;;23.75;7.47;;;;;;;-0.62;78.21;101141.66;1662082;85;21143;-91
2020/12/12 08:11:04;;;;;;;21.87;6.58;;;;;;;-0.71;78.45;101134.25;1665548;85;21179;-93
2020/12/12 08:13:31;;;;;;;20.08;7.15;;;;;;;-0.95;79.49;101134.69;1675999;85;21214;-92
2020/12/12 08:22:19;;;;;;;24.43;7.53;;;;;;;-0.71;79.74;101140.88;1581578;90;21200;-92
2020/12/12 08:24:46;;;;;;;20.27;6.95;;;;;;;-0.94;80.09;101129.73;1588622;87;21172;-92
2020/12/12 08:27:23;;;;;;;27.37;8.20;;;;;;;-0.81;79.56;101119.10;1600812;87;21205;-92
2020/12/12 08:29:52;;;;;;;26.07;7.35;;;;;;;-0.71;80.16;101121.87;1566874;91;21207;-92
2020/12/12 08:32:43;;;;;;;22.00;6.85;;;;;;;-0.65;79.70;101111.07;1566956;91;21262;-93
2020/12/12 08:35:29;;;;;;;29.35;7.87;;;;;;;-0.56;79.41;101116.67;1542094;91;21822;-92
2020/12/12 08:38:08;;;;;;;19.07;7.28;;;;;;;-0.67;80.65;101117.06;1525242;94;21314;-92
2020/12/12 08:40:44;;;;;;;23.83;7.12;;;;;;;-0.48;80.22;101103.37;1524915;93;21227;-93
2020/12/12 08:43:13;;;;;;;20.43;6.37;;;;;;;-0.64;81.15;101086.27;1489163;96;21198;-92
2020/12/12 08:45:42;;;;;;;29.07;7.60;;;;;;;-0.88;81.24;101089.88;1485964;96;21264;-92
2020/12/12 08:48:15;;;;;;;20.77;6.95;;;;;;;-0.44;80.58;101097.72;1479474;95;21574;-92
2020/12/12 08:50:50;;;;;;;25.77;6.37;;;;;;;-0.94;83.01;101093.20;1479559;97;21247;-92
2020/12/12 08:53:24;;;;;;;27.70;8.58;;;;;;;-0.60;81.96;101094.69;1479622;97;21649;-93
2020/12/12 08:56:15;;;;;;;27.60;7.92;;;;;;;-0.46;81.77;101083.35;1477322;96;21198;-92
2020/12/12 08:58:46;;;;;;;26.10;7.80;;;;;;;-0.38;82.19;101091.25;1477876;95;21267;-93
2020/12/12 09:01:16;;;;;;;27.62;7.83;;;;;;;-0.65;82.75;101087.25;1482969;95;21682;-92
2020/12/12 09:04:04;;;;;;;31.80;10.32;;;;;;;-0.74;83.70;101091.76;1483220;95;21339;-92
2020/12/12 09:06:57;;;;;;;24.47;8.25;;;;;;;-0.50;84.06;101078.91;1505405;93;21897;-93
2020/12/12 09:13:10;;;;;;;22.02;6.80;;;;;;;-0.90;85.69;101083.09;1474608;97;21631;-92
2020/12/12 09:15:36;;;;;;;31.35;7.47;;;;;;;-0.73;85.68;101076.23;1426103;98;21299;-93
2020/12/12 09:18:04;;;;;;;23.38;6.53;;;;;;;-0.80;86.12;101079.23;1448137;99;21321;-92
2020/12/12 09:20:30;;;;;;;29.25;8.90;;;;;;;-1.11;88.13;101077.08;1479229;95;21277;-92
2020/12/12 09:22:56;;;;;;;30.25;8.43;;;;;;;-0.81;87.60;101077.59;1477647;97;21201;-92
2020/12/12 09:25:22;;;;;;;29.85;8.73;;;;;;;-0.50;87.12;101076.74;1478181;94;21713;-93
2020/12/12 09:27:47;;;;;;;23.85;7.65;;;;;;;-0.57;87.27;101070.01;1519443;93;21467;-94
2020/12/12 09:30:13;;;;;;;34.65;9.33;;;;;;;-0.57;87.54;101062.06;1520375;94;21177;-92
2020/12/12 09:32:42;;;;;;;36.73;10.90;;;;;;;-0.66;87.74;101050.39;1562145;89;21078;-91
2020/12/12 09:35:08;;;;;;;29.80;9.28;;;;;;;-0.72;89.23;101055.38;1551274;91;21267;-92
2020/12/12 09:37:33;;;;;;;27.48;9.53;;;;;;;-0.58;89.41;101057.78;1571812;91;21409;-90
2020/12/12 09:39:59;;;;;;;22.27;8.45;;;;;;;-0.51;89.49;101053.42;1572271;89;21000;-91
2020/12/12 09:42:25;;;;;;;27.52;8.53;;;;;;;-0.18;87.73;101052.36;1573797;91;21221;-91
2020/12/12 09:44:51;;;;;;;29.90;8.40;;;;;;;-0.19;87.25;101053.38;1573933;91;21699;-92
2020/12/12 09:47:17;;;;;;;23.15;8.78;;;;;;;-0.27;88.62;101051.60;1588166;89;21108;-92
2020/12/12 09:49:43;;;;;;;24.15;7.92;;;;;;;-0.10;87.97;101048.33;1597467;89;21284;-92
2020/12/12 09:52:08;;;;;;;34.70;9.48;;;;;;;-0.42;89.96;101039.63;1597207;89;21060;-90
2020/12/12 09:54:35;;;;;;;26.48;8.78;;;;;;;-0.29;90.21;101039.88;1597347;89;21127;-92
2020/12/12 09:57:01;;;;;;;27.82;8.80;;;;;;;-0.48;91.24;101040.34;1646705;83;21165;-91
2020/12/12 09:59:27;;;;;;;33.65;10.48;;;;;;;-0.26;89.86;101030.76;1711227;82;21678;-92
2020/12/12 10:01:52;;;;;;;34.92;10.40;;;;;;;-0.13;90.21;101032.80;1687627;83;21254;-92
2020/12/12 10:08:00;;;;;;;29.70;10.90;;;;;;;0.21;88.50;101041.09;1687335;85;21286;-94
2020/12/12 10:17:49;;;;;;;41.95;13.20;;;;;;;0.32;88.62;101027.88;1795529;79;21165;-95
2020/12/12 10:20:15;;;;;;;34.15;10.28;;;;;;;0.17;89.46;101019.09;1795772;79;21200;-93
2020/12/12 10:22:41;;;;;;;33.85;10.75;;;;;;;0.23;89.69;101027.14;1795924;79;21151;-93
2020/12/12 10:25:08;;;;;;;33.35;10.48;;;;;;;-0.10;90.71;101028.47;1795804;79;21173;-92
2020/12/12 10:31:18;;;;;;;33.90;10.75;;;;;;;0.39;90.35;101016.07;1796326;79;21594;-94
2020/12/12 10:44:10;;;;;;;33.95;11.63;;;;;;;0.25;91.20;101003.63;1813332;78;21153;-94
2020/12/12 10:50:17;;;;;;;43.42;12.73;;;;;;;0.66;90.34;101000.02;1815132;79;21173;-94
2020/12/12 10:56:28;;;;;;;55.08;16.62;;;;;;;0.68;90.51;100998.01;1814441;79;21598;-94
2020/12/12 11:20:55;;;;;;;32.45;10.25;;;;;;;1.20;89.16;100998.28;1739372;80;21358;-94
2020/12/12 11:23:28;;;;;;;28.50;10.85;;;;;;;1.24;89.04;101023.46;1759347;80;20926;-93
2020/12/12 11:26:00;;;;;;;29.67;9.70;;;;;;;1.21;89.27;101020.36;1670717;83;21580;-95
2020/12/12 11:28:26;;;;;;;30.17;10.40;;;;;;;1.34;89.45;101017.33;1696113;84;21075;-94
2020/12/12 11:48:00;;;;;;;34.33;11.65;;;;;;;1.53;88.32;101030.50;1705622;83;21194;-92
2020/12/12 11:50:29;;;;;;;35.15;10.43;;;;;;;1.42;87.82;101033.66;1706610;83;21243;-92
2020/12/12 11:52:56;;;;;;;35.23;10.35;;;;;;;1.25;89.52;101039.70;1706069;84;21603;-94
2020/12/12 11:55:24;;;;;;;26.68;8.88;;;;;;;1.38;88.82;101032.37;1698141;84;21159;-93
2020/12/12 11:57:50;;;;;;;29.20;9.20;;;;;;;1.05;90.35;101030.68;1679623;85;21225;-92
2020/12/12 12:00:16;;;;;;;29.57;9.55;;;;;;;1.36;91.17;101034.41;1679395;85;21162;-90
2020/12/12 12:02:44;;;;;;;30.82;9.40;;;;;;;1.28;90.92;101028.70;1656786;85;21965;-91
2020/12/12 12:05:10;;;;;;;32.05;10.90;;;;;;;1.41;90.97;101040.47;1679627;84;21226;-90
2020/12/12 12:12:41;;;;;;;24.72;8.18;;;;;;;1.22;91.08;101028.12;1631068;86;21233;-88
2020/12/12 12:15:07;;;;;;;25.72;7.85;;;;;;;1.44;90.57;101034.78;1634048;85;22100;-88
2020/12/12 12:17:43;;;;;;;;;;;;;;;;;;;;;
2020/12/12 12:20:02;;;;;;;24.20;8.28;;;;;;;1.40;90.52;101038.83;1612411;87;21199;-89
2020/12/12 12:22:28;;;;;;;22.93;7.78;;;;;;;1.65;90.11;101039.27;1633951;87;21162;-89
2020/12/12 12:24:55;;;;;;;26.52;8.30;;;;;;;1.57;89.45;101037.06;1632000;87;21114;-88
2020/12/12 12:27:22;;;;;;;23.42;8.30;;;;;;;1.48;89.44;101046.17;1622727;88;21207;-89
2020/12/12 12:29:48;;;;;;;23.80;7.42;;;;;;;1.50;89.93;101044.64;1622729;88;21199;-90
2020/12/12 12:32:14;;;;;;;20.97;7.33;;;;;;;1.41;90.17;101047.10;1622707;88;21232;-89
2020/12/12 12:34:40;;;;;;;30.23;9.73;;;;;;;1.45;91.14;101048.39;1622696;88;22076;-90
2020/12/12 12:37:07;;;;;;;25.57;8.45;;;;;;;1.13;92.74;101046.50;1619066;88;21092;-89
2020/12/12 12:39:33;;;;;;;25.35;8.90;;;;;;;1.42;92.70;101046.11;1622672;88;21222;-90
2020/12/12 12:41:59;;;;;;;26.45;8.93;;;;;;;1.35;91.37;101042.04;1622749;87;21199;-89
2020/12/12 12:44:27;;;;;;;24.25;8.23;;;;;;;1.22;92.41;101045.38;1622658;88;21644;-89
2020/12/12 12:46:53;;;;;;;25.17;9.68;;;;;;;0.81;93.80;101040.59;1585706;88;21135;-88
2020/12/12 12:49:19;;;;;;;23.83;8.33;;;;;;;1.25;93.95;101046.33;1578437;90;21091;-88
2020/12/12 12:51:50;;;;;;;27.60;10.30;;;;;;;1.13;93.36;101041.20;1574638;91;21722;-87
2020/12/12 12:54:16;;;;;;;30.60;11.88;;;;;;;1.13;93.51;101049.16;1572060;89;21213;-88
2020/12/12 12:56:44;;;;;;;29.60;12.58;;;;;;;1.45;91.76;101041.75;1555302;88;21278;-87
2020/12/12 12:59:10;;;;;;;28.38;11.05;;;;;;;1.17;93.22;101041.13;1611441;88;21182;-87